sensor_id;sensor_type;location;lat;lon;timestamp;temperature;humidity
35127;DHT22;21300;52.006;5.798;2022-12-31T00:01:09;9.20;99.90
35127;DHT22;21300;52.006;5.798;2022-12-31T00:03:36;9.20;99.90
35127;DHT22;21300;52.006;5.798;2022-12-31T00:06:19;9.20;99.90
35127;DHT22;21300;52.006;5.798;2022-12-31T00:08:46;9.20;99.90
35127;DHT22;21300;52.006;5.798;2022-12-31T00:11:12;9.30;99.90
35127;DHT22;21300;52.006;5.798;2022-12-31T00:13:38;9.30;99.90
35127;DHT22;21300;52.006;5.798;2022-12-31T00:16:08;9.20;99.90
35127;DHT22;21300;52.006;5.798;2022-12-31T00:18:34;9.20;99.90
35127;DHT22;21300;52.006;5.798;2022-12-31T00:21:06;9.30;99.90
35127;DHT22;21300;52.006;5.798;2022-12-31T00:23:32;9.30;99.90
35127;DHT22;21300;52.006;5.798;2022-12-31T00:26:19;9.30;99.90
35127;DHT22;21300;52.006;5.798;2022-12-31T00:28:50;9.30;99.90
35127;DHT22;21300;52.006;5.798;2022-12-31T00:31:18;9.30;99.90
35127;DHT22;21300;52.006;5.798;2022-12-31T00:33:44;9.30;99.90
35127;DHT22;21300;52.006;5.798;2022-12-31T00:36:15;9.30;99.90
35127;DHT22;21300;52.006;5.798;2022-12-31T00:38:43;9.30;99.90
35127;DHT22;21300;52.006;5.798;2022-12-31T00:41:09;9.30;99.90
35127;DHT22;21300;52.006;5.798;2022-12-31T00:43:35;9.30;99.90
35127;DHT22;21300;52.006;5.798;2022-12-31T00:46:01;9.40;99.90
35127;DHT22;21300;52.006;5.798;2022-12-31T00:48:27;9.40;99.90
35127;DHT22;21300;52.006;5.798;2022-12-31T00:50:54;9.40;99.90
35127;DHT22;21300;52.006;5.798;2022-12-31T00:53:20;9.40;99.90
35127;DHT22;21300;52.006;5.798;2022-12-31T00:55:46;9.40;99.90
35127;DHT22;21300;52.006;5.798;2022-12-31T00:58:12;9.40;99.90
35127;DHT22;21300;52.006;5.798;2022-12-31T01:00:37;9.40;99.90
35127;DHT22;21300;52.006;5.798;2022-12-31T01:03:03;9.40;99.90
35127;DHT22;21300;52.006;5.798;2022-12-31T01:05:30;9.40;99.90
35127;DHT22;21300;52.006;5.798;2022-12-31T01:07:56;9.40;99.90
35127;DHT22;21300;52.006;5.798;2022-12-31T01:10:21;9.50;99.90
35127;DHT22;21300;52.006;5.798;2022-12-31T01:13:06;9.50;99.90
35127;DHT22;21300;52.006;5.798;2022-12-31T01:15:33;9.40;99.90
35127;DHT22;21300;52.006;5.798;2022-12-31T01:18:00;9.50;99.90
35127;DHT22;21300;52.006;5.798;2022-12-31T01:20:25;9.50;99.90
35127;DHT22;21300;52.006;5.798;2022-12-31T01:22:51;9.50;99.90
35127;DHT22;21300;52.006;5.798;2022-12-31T01:25:16;9.50;99.90
35127;DHT22;21300;52.006;5.798;2022-12-31T01:27:42;9.50;99.90
35127;DHT22;21300;52.006;5.798;2022-12-31T01:30:08;9.50;99.90
35127;DHT22;21300;52.006;5.798;2022-12-31T01:32:33;9.50;99.90
35127;DHT22;21300;52.006;5.798;2022-12-31T01:34:59;9.50;99.90
35127;DHT22;21300;52.006;5.798;2022-12-31T01:37:24;9.50;99.90
35127;DHT22;21300;52.006;5.798;2022-12-31T01:39:50;9.50;99.90
35127;DHT22;21300;52.006;5.798;2022-12-31T01:42:16;9.50;99.90
35127;DHT22;21300;52.006;5.798;2022-12-31T01:44:44;9.50;99.90
35127;DHT22;21300;52.006;5.798;2022-12-31T01:47:14;9.50;99.90
35127;DHT22;21300;52.006;5.798;2022-12-31T01:49:53;9.60;99.90
35127;DHT22;21300;52.006;5.798;2022-12-31T01:52:27;9.60;99.90
35127;DHT22;21300;52.006;5.798;2022-12-31T01:54:59;9.50;99.90
35127;DHT22;21300;52.006;5.798;2022-12-31T01:57:27;9.50;99.90
35127;DHT22;21300;52.006;5.798;2022-12-31T01:59:54;9.50;99.90
35127;DHT22;21300;52.006;5.798;2022-12-31T02:02:20;9.60;99.90
35127;DHT22;21300;52.006;5.798;2022-12-31T02:04:47;9.60;99.90
35127;DHT22;21300;52.006;5.798;2022-12-31T02:07:14;9.50;99.90
35127;DHT22;21300;52.006;5.798;2022-12-31T02:09:41;9.50;99.90
35127;DHT22;21300;52.006;5.798;2022-12-31T02:12:08;9.60;99.90
35127;DHT22;21300;52.006;5.798;2022-12-31T02:14:38;9.60;99.90
35127;DHT22;21300;52.006;5.798;2022-12-31T02:22:46;9.60;99.90
35127;DHT22;21300;52.006;5.798;2022-12-31T02:29:02;9.60;99.90
35127;DHT22;21300;52.006;5.798;2022-12-31T02:31:36;9.60;99.90
35127;DHT22;21300;52.006;5.798;2022-12-31T02:34:12;9.60;99.90
35127;DHT22;21300;52.006;5.798;2022-12-31T02:36:42;9.60;99.90
35127;DHT22;21300;52.006;5.798;2022-12-31T02:39:10;9.60;99.90
35127;DHT22;21300;52.006;5.798;2022-12-31T02:41:36;9.60;99.90
35127;DHT22;21300;52.006;5.798;2022-12-31T02:44:20;9.60;99.90
35127;DHT22;21300;52.006;5.798;2022-12-31T02:49:51;9.60;99.90
35127;DHT22;21300;52.006;5.798;2022-12-31T02:52:31;9.60;99.90
35127;DHT22;21300;52.006;5.798;2022-12-31T02:55:10;9.60;99.90
35127;DHT22;21300;52.006;5.798;2022-12-31T02:57:48;9.60;99.90
35127;DHT22;21300;52.006;5.798;2022-12-31T03:00:17;9.70;99.90
35127;DHT22;21300;52.006;5.798;2022-12-31T03:03:03;9.60;99.90
35127;DHT22;21300;52.006;5.798;2022-12-31T03:05:32;9.60;99.90
35127;DHT22;21300;52.006;5.798;2022-12-31T03:07:58;9.60;99.90
35127;DHT22;21300;52.006;5.798;2022-12-31T03:13:08;9.60;99.90
35127;DHT22;21300;52.006;5.798;2022-12-31T03:15:34;9.60;99.90
35127;DHT22;21300;52.006;5.798;2022-12-31T03:20:37;9.60;99.90
35127;DHT22;21300;52.006;5.798;2022-12-31T03:25:52;9.60;99.90
35127;DHT22;21300;52.006;5.798;2022-12-31T03:28:20;9.60;99.90
35127;DHT22;21300;52.006;5.798;2022-12-31T03:30:58;9.70;99.90
35127;DHT22;21300;52.006;5.798;2022-12-31T03:33:24;9.60;99.90
35127;DHT22;21300;52.006;5.798;2022-12-31T03:35:51;9.70;99.90
35127;DHT22;21300;52.006;5.798;2022-12-31T03:38:18;9.60;99.90
35127;DHT22;21300;52.006;5.798;2022-12-31T03:40:50;9.60;99.90
35127;DHT22;21300;52.006;5.798;2022-12-31T03:43:17;9.60;99.90
35127;DHT22;21300;52.006;5.798;2022-12-31T03:45:50;9.60;99.90
35127;DHT22;21300;52.006;5.798;2022-12-31T03:48:16;9.60;99.90
35127;DHT22;21300;52.006;5.798;2022-12-31T03:50:42;9.60;99.90
35127;DHT22;21300;52.006;5.798;2022-12-31T03:53:08;9.60;99.90
35127;DHT22;21300;52.006;5.798;2022-12-31T03:55:34;9.60;99.90
35127;DHT22;21300;52.006;5.798;2022-12-31T03:57:59;9.60;99.90
35127;DHT22;21300;52.006;5.798;2022-12-31T04:00:25;9.60;99.90
35127;DHT22;21300;52.006;5.798;2022-12-31T04:02:50;9.60;99.90
35127;DHT22;21300;52.006;5.798;2022-12-31T04:05:16;9.60;99.90
35127;DHT22;21300;52.006;5.798;2022-12-31T04:07:42;9.70;99.90
35127;DHT22;21300;52.006;5.798;2022-12-31T04:10:10;9.60;99.90
35127;DHT22;21300;52.006;5.798;2022-12-31T04:12:36;9.60;99.90
35127;DHT22;21300;52.006;5.798;2022-12-31T04:15:03;9.60;99.90
35127;DHT22;21300;52.006;5.798;2022-12-31T04:17:29;9.60;99.90
35127;DHT22;21300;52.006;5.798;2022-12-31T04:19:55;9.60;99.90
35127;DHT22;21300;52.006;5.798;2022-12-31T04:22:20;9.60;99.90
35127;DHT22;21300;52.006;5.798;2022-12-31T04:24:46;9.60;99.90
35127;DHT22;21300;52.006;5.798;2022-12-31T04:27:12;9.60;99.90
35127;DHT22;21300;52.006;5.798;2022-12-31T04:29:38;9.70;99.90
35127;DHT22;21300;52.006;5.798;2022-12-31T04:32:05;9.60;99.90
35127;DHT22;21300;52.006;5.798;2022-12-31T04:34:31;9.60;99.90
35127;DHT22;21300;52.006;5.798;2022-12-31T04:36:56;9.60;99.90
35127;DHT22;21300;52.006;5.798;2022-12-31T04:39:23;9.70;99.90
35127;DHT22;21300;52.006;5.798;2022-12-31T04:41:49;9.60;99.90
35127;DHT22;21300;52.006;5.798;2022-12-31T04:44:14;9.60;99.90
35127;DHT22;21300;52.006;5.798;2022-12-31T04:46:40;9.60;99.90
35127;DHT22;21300;52.006;5.798;2022-12-31T04:49:06;9.60;99.90
35127;DHT22;21300;52.006;5.798;2022-12-31T04:51:32;9.70;99.90
35127;DHT22;21300;52.006;5.798;2022-12-31T04:53:58;9.60;99.90
35127;DHT22;21300;52.006;5.798;2022-12-31T04:56:24;9.70;99.90
35127;DHT22;21300;52.006;5.798;2022-12-31T04:58:49;9.70;99.90
35127;DHT22;21300;52.006;5.798;2022-12-31T05:01:15;9.60;99.90
35127;DHT22;21300;52.006;5.798;2022-12-31T05:03:41;9.60;99.90
35127;DHT22;21300;52.006;5.798;2022-12-31T05:06:13;9.60;99.90
35127;DHT22;21300;52.006;5.798;2022-12-31T05:08:39;9.60;99.90
35127;DHT22;21300;52.006;5.798;2022-12-31T05:11:05;9.60;99.90
35127;DHT22;21300;52.006;5.798;2022-12-31T05:13:30;9.60;99.90
35127;DHT22;21300;52.006;5.798;2022-12-31T05:15:56;9.70;99.90
35127;DHT22;21300;52.006;5.798;2022-12-31T05:18:22;9.60;99.90
35127;DHT22;21300;52.006;5.798;2022-12-31T05:20:47;9.70;99.90
35127;DHT22;21300;52.006;5.798;2022-12-31T05:23:14;9.60;99.90
35127;DHT22;21300;52.006;5.798;2022-12-31T05:25:41;9.70;99.90
35127;DHT22;21300;52.006;5.798;2022-12-31T05:28:07;9.70;99.90
35127;DHT22;21300;52.006;5.798;2022-12-31T05:30:33;9.70;99.90
35127;DHT22;21300;52.006;5.798;2022-12-31T05:32:59;9.70;99.90
35127;DHT22;21300;52.006;5.798;2022-12-31T05:35:24;9.60;99.90
35127;DHT22;21300;52.006;5.798;2022-12-31T05:37:50;9.70;99.90
35127;DHT22;21300;52.006;5.798;2022-12-31T05:40:16;9.70;99.90
35127;DHT22;21300;52.006;5.798;2022-12-31T05:42:41;9.70;99.90
35127;DHT22;21300;52.006;5.798;2022-12-31T05:45:07;9.70;99.90
35127;DHT22;21300;52.006;5.798;2022-12-31T05:47:33;9.70;99.90
35127;DHT22;21300;52.006;5.798;2022-12-31T05:49:59;9.70;99.90
35127;DHT22;21300;52.006;5.798;2022-12-31T05:52:24;9.70;99.90
35127;DHT22;21300;52.006;5.798;2022-12-31T05:54:50;9.70;99.90
35127;DHT22;21300;52.006;5.798;2022-12-31T05:57:15;9.70;99.90
35127;DHT22;21300;52.006;5.798;2022-12-31T05:59:41;9.70;99.90
35127;DHT22;21300;52.006;5.798;2022-12-31T06:02:07;9.70;99.90
35127;DHT22;21300;52.006;5.798;2022-12-31T06:04:32;9.70;99.90
35127;DHT22;21300;52.006;5.798;2022-12-31T06:06:58;9.70;99.90
35127;DHT22;21300;52.006;5.798;2022-12-31T06:09:23;9.70;99.90
35127;DHT22;21300;52.006;5.798;2022-12-31T06:11:49;9.70;99.90
35127;DHT22;21300;52.006;5.798;2022-12-31T06:14:14;9.70;99.90
35127;DHT22;21300;52.006;5.798;2022-12-31T06:16:41;9.70;99.90
35127;DHT22;21300;52.006;5.798;2022-12-31T06:19:07;9.70;99.90
35127;DHT22;21300;52.006;5.798;2022-12-31T06:21:32;9.70;99.90
35127;DHT22;21300;52.006;5.798;2022-12-31T06:23:58;9.80;99.90
35127;DHT22;21300;52.006;5.798;2022-12-31T06:26:25;9.80;99.90
35127;DHT22;21300;52.006;5.798;2022-12-31T06:28:51;9.80;99.90
35127;DHT22;21300;52.006;5.798;2022-12-31T06:31:17;9.70;99.90
35127;DHT22;21300;52.006;5.798;2022-12-31T06:33:42;9.80;99.90
35127;DHT22;21300;52.006;5.798;2022-12-31T06:36:10;9.80;99.90
35127;DHT22;21300;52.006;5.798;2022-12-31T06:38:38;9.80;99.90
35127;DHT22;21300;52.006;5.798;2022-12-31T06:41:10;9.80;99.90
35127;DHT22;21300;52.006;5.798;2022-12-31T06:43:37;9.80;99.90
35127;DHT22;21300;52.006;5.798;2022-12-31T06:48:48;9.80;99.90
35127;DHT22;21300;52.006;5.798;2022-12-31T06:51:18;9.80;99.90
35127;DHT22;21300;52.006;5.798;2022-12-31T06:53:46;9.80;99.90
35127;DHT22;21300;52.006;5.798;2022-12-31T06:56:21;9.80;99.90
35127;DHT22;21300;52.006;5.798;2022-12-31T06:58:47;9.80;99.90
35127;DHT22;21300;52.006;5.798;2022-12-31T07:01:36;9.80;99.90
35127;DHT22;21300;52.006;5.798;2022-12-31T07:07:08;9.90;99.90
35127;DHT22;21300;52.006;5.798;2022-12-31T07:09:56;9.90;99.90
35127;DHT22;21300;52.006;5.798;2022-12-31T07:20:24;9.90;99.90
35127;DHT22;21300;52.006;5.798;2022-12-31T07:22:50;9.90;99.90
35127;DHT22;21300;52.006;5.798;2022-12-31T07:25:17;9.90;99.90
35127;DHT22;21300;52.006;5.798;2022-12-31T07:30:45;9.90;99.90
35127;DHT22;21300;52.006;5.798;2022-12-31T07:36:05;9.90;99.90
35127;DHT22;21300;52.006;5.798;2022-12-31T07:38:41;9.90;99.90
35127;DHT22;21300;52.006;5.798;2022-12-31T07:46:57;10.00;99.90
35127;DHT22;21300;52.006;5.798;2022-12-31T07:49:25;10.00;99.90
35127;DHT22;21300;52.006;5.798;2022-12-31T07:51:52;10.00;99.90
35127;DHT22;21300;52.006;5.798;2022-12-31T07:54:19;10.00;99.90
35127;DHT22;21300;52.006;5.798;2022-12-31T07:56:45;10.00;99.90
35127;DHT22;21300;52.006;5.798;2022-12-31T08:02:14;10.00;99.90
35127;DHT22;21300;52.006;5.798;2022-12-31T08:05:01;10.10;99.90
35127;DHT22;21300;52.006;5.798;2022-12-31T08:07:51;10.20;99.90
35127;DHT22;21300;52.006;5.798;2022-12-31T08:12:48;10.20;99.90
35127;DHT22;21300;52.006;5.798;2022-12-31T08:15:16;10.20;99.90
35127;DHT22;21300;52.006;5.798;2022-12-31T08:17:42;10.20;99.90
35127;DHT22;21300;52.006;5.798;2022-12-31T08:20:16;10.20;99.90
35127;DHT22;21300;52.006;5.798;2022-12-31T08:23:31;10.20;99.90
35127;DHT22;21300;52.006;5.798;2022-12-31T08:25:55;10.20;99.90
35127;DHT22;21300;52.006;5.798;2022-12-31T08:31:22;10.20;99.90
35127;DHT22;21300;52.006;5.798;2022-12-31T08:33:59;10.20;99.90
35127;DHT22;21300;52.006;5.798;2022-12-31T08:41:54;10.20;99.90
35127;DHT22;21300;52.006;5.798;2022-12-31T08:49:31;10.30;99.90
35127;DHT22;21300;52.006;5.798;2022-12-31T08:51:58;10.30;99.90
35127;DHT22;21300;52.006;5.798;2022-12-31T08:54:24;10.30;99.90
35127;DHT22;21300;52.006;5.798;2022-12-31T08:57:33;10.30;99.90
35127;DHT22;21300;52.006;5.798;2022-12-31T09:00:11;10.30;99.90
35127;DHT22;21300;52.006;5.798;2022-12-31T09:05:54;10.30;99.90
35127;DHT22;21300;52.006;5.798;2022-12-31T09:19:53;10.40;99.90
35127;DHT22;21300;52.006;5.798;2022-12-31T09:22:19;10.40;99.90
35127;DHT22;21300;52.006;5.798;2022-12-31T09:24:45;10.40;99.90
35127;DHT22;21300;52.006;5.798;2022-12-31T09:41:10;10.70;99.90
35127;DHT22;21300;52.006;5.798;2022-12-31T09:49:48;10.70;99.90
35127;DHT22;21300;52.006;5.798;2022-12-31T10:06:37;10.80;99.90
35127;DHT22;21300;52.006;5.798;2022-12-31T10:14:46;10.80;99.90
35127;DHT22;21300;52.006;5.798;2022-12-31T10:29:08;10.80;99.90
35127;DHT22;21300;52.006;5.798;2022-12-31T10:39:37;10.90;99.90
35127;DHT22;21300;52.006;5.798;2022-12-31T10:48:27;10.90;99.90
35127;DHT22;21300;52.006;5.798;2022-12-31T10:56:52;10.90;99.90
35127;DHT22;21300;52.006;5.798;2022-12-31T10:59:47;11.00;99.90
35127;DHT22;21300;52.006;5.798;2022-12-31T11:16:16;11.10;99.90
35127;DHT22;21300;52.006;5.798;2022-12-31T11:21:36;11.10;99.90
35127;DHT22;21300;52.006;5.798;2022-12-31T11:27:20;11.10;99.90
35127;DHT22;21300;52.006;5.798;2022-12-31T11:30:22;11.10;99.90
35127;DHT22;21300;52.006;5.798;2022-12-31T11:36:07;11.20;99.90
35127;DHT22;21300;52.006;5.798;2022-12-31T11:38:42;11.20;99.90
35127;DHT22;21300;52.006;5.798;2022-12-31T11:47:24;11.30;99.90
35127;DHT22;21300;52.006;5.798;2022-12-31T11:52:50;11.30;99.90
35127;DHT22;21300;52.006;5.798;2022-12-31T11:57:47;11.30;99.90
35127;DHT22;21300;52.006;5.798;2022-12-31T12:00:22;11.40;99.90
35127;DHT22;21300;52.006;5.798;2022-12-31T12:02:50;11.40;99.90
35127;DHT22;21300;52.006;5.798;2022-12-31T12:05:19;11.40;99.90
35127;DHT22;21300;52.006;5.798;2022-12-31T12:08:03;11.40;99.90
35127;DHT22;21300;52.006;5.798;2022-12-31T12:10:35;11.40;99.90
35127;DHT22;21300;52.006;5.798;2022-12-31T12:13:17;11.40;99.90
35127;DHT22;21300;52.006;5.798;2022-12-31T12:15:48;11.40;99.90
35127;DHT22;21300;52.006;5.798;2022-12-31T12:21:28;11.40;99.90
35127;DHT22;21300;52.006;5.798;2022-12-31T12:26:44;11.40;99.90
35127;DHT22;21300;52.006;5.798;2022-12-31T12:29:15;11.50;99.90
35127;DHT22;21300;52.006;5.798;2022-12-31T12:31:42;11.50;99.90
35127;DHT22;21300;52.006;5.798;2022-12-31T12:34:38;11.50;99.90
35127;DHT22;21300;52.006;5.798;2022-12-31T12:37:15;11.50;99.90
35127;DHT22;21300;52.006;5.798;2022-12-31T12:39:58;11.50;99.90
35127;DHT22;21300;52.006;5.798;2022-12-31T12:42:25;11.50;99.90
35127;DHT22;21300;52.006;5.798;2022-12-31T12:45:02;11.50;99.90
35127;DHT22;21300;52.006;5.798;2022-12-31T12:47:29;11.50;99.90
35127;DHT22;21300;52.006;5.798;2022-12-31T12:49:55;11.50;99.90
35127;DHT22;21300;52.006;5.798;2022-12-31T13:00:28;11.60;99.90
35127;DHT22;21300;52.006;5.798;2022-12-31T13:06:11;11.70;99.90
35127;DHT22;21300;52.006;5.798;2022-12-31T13:09:02;12.20;99.90
35127;DHT22;21300;52.006;5.798;2022-12-31T13:14:21;12.30;99.90
35127;DHT22;21300;52.006;5.798;2022-12-31T13:22:26;12.10;99.90
35127;DHT22;21300;52.006;5.798;2022-12-31T13:27:41;12.10;99.90
35127;DHT22;21300;52.006;5.798;2022-12-31T13:32:44;12.00;99.90
35127;DHT22;21300;52.006;5.798;2022-12-31T13:43:35;12.00;99.90
35127;DHT22;21300;52.006;5.798;2022-12-31T13:48:58;12.00;99.90
35127;DHT22;21300;52.006;5.798;2022-12-31T13:51:50;12.00;99.90
35127;DHT22;21300;52.006;5.798;2022-12-31T13:54:44;12.00;99.90
35127;DHT22;21300;52.006;5.798;2022-12-31T13:57:47;11.90;99.90
35127;DHT22;21300;52.006;5.798;2022-12-31T14:00:18;11.90;99.90
35127;DHT22;21300;52.006;5.798;2022-12-31T14:05:22;12.00;99.90
35127;DHT22;21300;52.006;5.798;2022-12-31T14:08:00;11.90;99.90
35127;DHT22;21300;52.006;5.798;2022-12-31T14:10:39;11.90;99.90
35127;DHT22;21300;52.006;5.798;2022-12-31T14:22:02;12.00;99.90
35127;DHT22;21300;52.006;5.798;2022-12-31T14:24:44;12.00;99.90
35127;DHT22;21300;52.006;5.798;2022-12-31T14:27:21;12.00;99.90
35127;DHT22;21300;52.006;5.798;2022-12-31T14:29:54;12.00;99.90
35127;DHT22;21300;52.006;5.798;2022-12-31T14:35:24;12.00;99.90
35127;DHT22;21300;52.006;5.798;2022-12-31T14:37:59;12.00;99.90
35127;DHT22;21300;52.006;5.798;2022-12-31T14:54:40;12.10;99.90
35127;DHT22;21300;52.006;5.798;2022-12-31T14:57:10;12.20;99.90
35127;DHT22;21300;52.006;5.798;2022-12-31T14:59:36;12.50;99.90
35127;DHT22;21300;52.006;5.798;2022-12-31T15:02:01;12.60;99.90
35127;DHT22;21300;52.006;5.798;2022-12-31T15:04:46;12.60;99.90
35127;DHT22;21300;52.006;5.798;2022-12-31T15:07:33;12.60;99.90
35127;DHT22;21300;52.006;5.798;2022-12-31T15:12:48;12.30;99.90
35127;DHT22;21300;52.006;5.798;2022-12-31T15:15:40;12.30;99.90
35127;DHT22;21300;52.006;5.798;2022-12-31T15:23:23;12.20;99.90
35127;DHT22;21300;52.006;5.798;2022-12-31T15:25:58;12.20;99.90
35127;DHT22;21300;52.006;5.798;2022-12-31T15:28:36;12.20;99.90
35127;DHT22;21300;52.006;5.798;2022-12-31T15:31:18;12.20;99.90
35127;DHT22;21300;52.006;5.798;2022-12-31T15:36:28;12.20;99.90
35127;DHT22;21300;52.006;5.798;2022-12-31T15:39:25;12.20;99.90
35127;DHT22;21300;52.006;5.798;2022-12-31T15:41:51;12.20;99.90
35127;DHT22;21300;52.006;5.798;2022-12-31T15:47:24;12.20;99.90
35127;DHT22;21300;52.006;5.798;2022-12-31T15:49:52;12.10;99.90
35127;DHT22;21300;52.006;5.798;2022-12-31T15:52:25;12.20;99.90
35127;DHT22;21300;52.006;5.798;2022-12-31T15:54:54;12.20;99.90
35127;DHT22;21300;52.006;5.798;2022-12-31T15:57:29;12.20;99.90
35127;DHT22;21300;52.006;5.798;2022-12-31T16:00:00;12.10;99.90
35127;DHT22;21300;52.006;5.798;2022-12-31T16:02:27;12.20;99.90
35127;DHT22;21300;52.006;5.798;2022-12-31T16:04:53;12.10;99.90
35127;DHT22;21300;52.006;5.798;2022-12-31T16:10:05;12.10;99.90
35127;DHT22;21300;52.006;5.798;2022-12-31T16:12:34;12.10;99.90
35127;DHT22;21300;52.006;5.798;2022-12-31T16:15:04;12.10;99.90
35127;DHT22;21300;52.006;5.798;2022-12-31T16:17:35;12.10;99.90
35127;DHT22;21300;52.006;5.798;2022-12-31T16:20:23;12.10;99.90
35127;DHT22;21300;52.006;5.798;2022-12-31T16:22:51;12.10;99.90
35127;DHT22;21300;52.006;5.798;2022-12-31T16:25:19;12.10;99.90
35127;DHT22;21300;52.006;5.798;2022-12-31T16:27:45;12.10;99.90
35127;DHT22;21300;52.006;5.798;2022-12-31T16:30:21;12.10;99.90
35127;DHT22;21300;52.006;5.798;2022-12-31T16:32:48;12.10;99.90
35127;DHT22;21300;52.006;5.798;2022-12-31T16:35:52;12.10;99.90
35127;DHT22;21300;52.006;5.798;2022-12-31T16:38:32;12.10;99.90
35127;DHT22;21300;52.006;5.798;2022-12-31T16:41:14;12.10;99.90
35127;DHT22;21300;52.006;5.798;2022-12-31T16:43:41;12.10;99.90
35127;DHT22;21300;52.006;5.798;2022-12-31T16:46:09;12.20;99.90
35127;DHT22;21300;52.006;5.798;2022-12-31T16:48:36;12.20;99.90
35127;DHT22;21300;52.006;5.798;2022-12-31T16:51:22;12.10;99.90
35127;DHT22;21300;52.006;5.798;2022-12-31T16:54:18;12.10;99.90
35127;DHT22;21300;52.006;5.798;2022-12-31T16:56:44;12.10;99.90
35127;DHT22;21300;52.006;5.798;2022-12-31T16:59:24;12.10;99.90
35127;DHT22;21300;52.006;5.798;2022-12-31T17:01:51;12.10;99.90
35127;DHT22;21300;52.006;5.798;2022-12-31T17:04:20;12.10;99.90
35127;DHT22;21300;52.006;5.798;2022-12-31T17:06:47;12.10;99.90
35127;DHT22;21300;52.006;5.798;2022-12-31T17:09:21;12.10;99.90
35127;DHT22;21300;52.006;5.798;2022-12-31T17:11:55;12.10;99.90
35127;DHT22;21300;52.006;5.798;2022-12-31T17:14:23;12.10;99.90
35127;DHT22;21300;52.006;5.798;2022-12-31T17:17:07;12.10;99.90
35127;DHT22;21300;52.006;5.798;2022-12-31T17:19:49;12.10;99.90
35127;DHT22;21300;52.006;5.798;2022-12-31T17:22:24;12.10;99.90
35127;DHT22;21300;52.006;5.798;2022-12-31T17:24:50;12.10;99.90
35127;DHT22;21300;52.006;5.798;2022-12-31T17:27:17;12.10;99.90
35127;DHT22;21300;52.006;5.798;2022-12-31T17:29:43;12.10;99.90
35127;DHT22;21300;52.006;5.798;2022-12-31T17:32:27;12.10;99.90
35127;DHT22;21300;52.006;5.798;2022-12-31T17:34:53;12.10;99.90
35127;DHT22;21300;52.006;5.798;2022-12-31T17:37:27;12.10;99.90
35127;DHT22;21300;52.006;5.798;2022-12-31T17:39:57;12.00;99.90
35127;DHT22;21300;52.006;5.798;2022-12-31T17:42:35;12.00;99.90
35127;DHT22;21300;52.006;5.798;2022-12-31T17:45:05;12.00;99.90
35127;DHT22;21300;52.006;5.798;2022-12-31T17:47:37;12.10;99.90
35127;DHT22;21300;52.006;5.798;2022-12-31T17:50:20;12.00;99.90
35127;DHT22;21300;52.006;5.798;2022-12-31T17:52:46;12.10;99.90
35127;DHT22;21300;52.006;5.798;2022-12-31T17:55:12;12.00;99.90
35127;DHT22;21300;52.006;5.798;2022-12-31T17:57:44;12.00;99.90
35127;DHT22;21300;52.006;5.798;2022-12-31T18:00:19;12.00;99.90
35127;DHT22;21300;52.006;5.798;2022-12-31T18:02:45;12.00;99.90
35127;DHT22;21300;52.006;5.798;2022-12-31T18:05:15;12.00;99.90
35127;DHT22;21300;52.006;5.798;2022-12-31T18:07:41;12.00;99.90
35127;DHT22;21300;52.006;5.798;2022-12-31T18:10:07;12.00;99.90
35127;DHT22;21300;52.006;5.798;2022-12-31T18:12:33;12.00;99.90
35127;DHT22;21300;52.006;5.798;2022-12-31T18:14:59;12.00;99.90
35127;DHT22;21300;52.006;5.798;2022-12-31T18:17:26;12.00;99.90
35127;DHT22;21300;52.006;5.798;2022-12-31T18:19:52;12.00;99.90
35127;DHT22;21300;52.006;5.798;2022-12-31T18:22:17;12.00;99.90
35127;DHT22;21300;52.006;5.798;2022-12-31T18:24:43;12.00;99.90
35127;DHT22;21300;52.006;5.798;2022-12-31T18:27:19;12.00;99.90
35127;DHT22;21300;52.006;5.798;2022-12-31T18:29:45;12.00;99.90
35127;DHT22;21300;52.006;5.798;2022-12-31T18:32:23;12.00;99.90
35127;DHT22;21300;52.006;5.798;2022-12-31T18:34:49;12.00;99.90
35127;DHT22;21300;52.006;5.798;2022-12-31T18:37:15;12.00;99.90
35127;DHT22;21300;52.006;5.798;2022-12-31T18:39:41;12.00;99.90
35127;DHT22;21300;52.006;5.798;2022-12-31T18:42:11;12.00;99.90
35127;DHT22;21300;52.006;5.798;2022-12-31T18:44:38;12.00;99.90
35127;DHT22;21300;52.006;5.798;2022-12-31T18:47:13;12.00;99.90
35127;DHT22;21300;52.006;5.798;2022-12-31T18:49:39;12.00;99.90
35127;DHT22;21300;52.006;5.798;2022-12-31T18:52:05;12.00;99.90
35127;DHT22;21300;52.006;5.798;2022-12-31T18:54:30;12.00;99.90
35127;DHT22;21300;52.006;5.798;2022-12-31T18:56:56;11.90;99.90
35127;DHT22;21300;52.006;5.798;2022-12-31T18:59:21;12.00;99.90
35127;DHT22;21300;52.006;5.798;2022-12-31T19:01:47;12.00;99.90
35127;DHT22;21300;52.006;5.798;2022-12-31T19:04:18;12.00;99.90
35127;DHT22;21300;52.006;5.798;2022-12-31T19:06:45;12.00;99.90
35127;DHT22;21300;52.006;5.798;2022-12-31T19:09:11;12.00;99.90
35127;DHT22;21300;52.006;5.798;2022-12-31T19:11:40;11.90;99.90
35127;DHT22;21300;52.006;5.798;2022-12-31T19:14:21;11.90;99.90
35127;DHT22;21300;52.006;5.798;2022-12-31T19:16:49;12.00;99.90
35127;DHT22;21300;52.006;5.798;2022-12-31T19:19:15;12.00;99.90
35127;DHT22;21300;52.006;5.798;2022-12-31T19:21:41;12.00;99.90
35127;DHT22;21300;52.006;5.798;2022-12-31T19:24:22;11.90;99.90
35127;DHT22;21300;52.006;5.798;2022-12-31T19:26:48;12.00;99.90
35127;DHT22;21300;52.006;5.798;2022-12-31T19:29:22;12.00;99.90
35127;DHT22;21300;52.006;5.798;2022-12-31T19:31:48;11.90;99.90
35127;DHT22;21300;52.006;5.798;2022-12-31T19:34:14;12.00;99.90
35127;DHT22;21300;52.006;5.798;2022-12-31T19:36:40;12.00;99.90
35127;DHT22;21300;52.006;5.798;2022-12-31T19:39:12;11.90;99.90
35127;DHT22;21300;52.006;5.798;2022-12-31T19:41:41;11.90;99.90
35127;DHT22;21300;52.006;5.798;2022-12-31T19:44:15;11.90;99.90
35127;DHT22;21300;52.006;5.798;2022-12-31T19:46:42;11.90;99.90
35127;DHT22;21300;52.006;5.798;2022-12-31T19:49:10;12.00;99.90
35127;DHT22;21300;52.006;5.798;2022-12-31T19:51:36;12.00;99.90
35127;DHT22;21300;52.006;5.798;2022-12-31T19:54:02;11.90;99.90
35127;DHT22;21300;52.006;5.798;2022-12-31T19:56:27;12.00;99.90
35127;DHT22;21300;52.006;5.798;2022-12-31T19:58:53;11.90;99.90
35127;DHT22;21300;52.006;5.798;2022-12-31T20:01:21;11.90;99.90
35127;DHT22;21300;52.006;5.798;2022-12-31T20:03:47;12.00;99.90
35127;DHT22;21300;52.006;5.798;2022-12-31T20:06:13;11.90;99.90
35127;DHT22;21300;52.006;5.798;2022-12-31T20:08:39;11.90;99.90
35127;DHT22;21300;52.006;5.798;2022-12-31T20:13:38;11.90;99.90
35127;DHT22;21300;52.006;5.798;2022-12-31T20:16:12;11.90;99.90
35127;DHT22;21300;52.006;5.798;2022-12-31T20:18:40;11.90;99.90
35127;DHT22;21300;52.006;5.798;2022-12-31T20:21:15;11.90;99.90
35127;DHT22;21300;52.006;5.798;2022-12-31T20:23:42;11.90;99.90
35127;DHT22;21300;52.006;5.798;2022-12-31T20:26:09;11.90;99.90
35127;DHT22;21300;52.006;5.798;2022-12-31T20:28:35;11.90;99.90
35127;DHT22;21300;52.006;5.798;2022-12-31T20:31:10;11.90;99.90
35127;DHT22;21300;52.006;5.798;2022-12-31T20:33:36;11.90;99.90